Time;durP1;ratioP1;P1;durP2;ratioP2;P2;SDS_P1;SDS_P2;PMS_P1;PMS_P2;Temp;Humidity;BMP_temperature;BMP_pressure;BME280_temperature;BME280_humidity;BME280_pressure;Samples;Min_cycle;Max_cycle;Signal;HPM_P1;HPM_P2
2021/10/02 00:31:05;;;;;;;22.53;20.90;;;;;;;;;;4937378;29;20547;-93
2021/10/02 00:35:36;;;;;;;21.87;20.57;;;;;;;;;;4976709;28;20401;-94
2021/10/02 00:41:03;;;;;;;22.20;20.80;;;;;;;;;;4976680;28;20453;-93
2021/10/02 00:41:17;;;;;;;23.17;21.53;;;;;;;;;;4976749;28;20488;-94
2021/10/02 00:46:29;;;;;;;22.17;20.97;;;;;;;;;;4976595;28;20517;-93
2021/10/02 00:48:57;;;;;;;22.27;21.07;;;;;;;;;;4976482;28;20454;-93
2021/10/02 00:51:26;;;;;;;22.33;21.13;;;;;;;;;;4976332;28;20445;-93
2021/10/02 00:53:53;;;;;;;23.47;21.70;;;;;;;;;;4976451;28;20464;-93
2021/10/02 00:56:20;;;;;;;23.00;21.33;;;;;;;;;;4976296;28;20461;-93
2021/10/02 00:58:49;;;;;;;24.17;22.30;;;;;;;;;;4976002;28;20469;-92
2021/10/02 01:01:21;;;;;;;22.70;20.83;;;;;;;;;;4975437;28;20921;-93
2021/10/02 01:03:52;;;;;;;22.60;21.10;;;;;;;;;;4976175;28;20509;-94
2021/10/02 01:06:23;;;;;;;23.30;21.60;;;;;;;;;;4976298;28;20436;-93
2021/10/02 01:08:57;;;;;;;22.33;21.03;;;;;;;;;;4983361;28;20961;-93
2021/10/02 01:11:29;;;;;;;22.27;20.73;;;;;;;;;;4995333;28;20451;-93
2021/10/02 01:13:59;;;;;;;22.43;20.77;;;;;;;;;;4995394;28;20431;-93
2021/10/02 01:16:31;;;;;;;22.10;20.90;;;;;;;;;;4995587;28;20436;-94
2021/10/02 01:19:03;;;;;;;22.40;21.00;;;;;;;;;;4995148;28;20485;-94
2021/10/02 01:21:47;;;;;;;22.40;21.03;;;;;;;;;;4995487;28;20465;-94
2021/10/02 01:24:23;;;;;;;22.70;21.27;;;;;;;;;;4994500;28;20428;-93
2021/10/02 01:27:02;;;;;;;21.20;19.90;;;;;;;;;;4995272;28;20427;-91
2021/10/02 01:29:31;;;;;;;22.10;21.00;;;;;;;;;;4995146;28;20429;-92
2021/10/02 01:32:05;;;;;;;22.37;20.93;;;;;;;;;;4995322;28;20515;-92
2021/10/02 01:34:38;;;;;;;21.33;20.10;;;;;;;;;;4977682;28;20424;-92
2021/10/02 01:37:13;;;;;;;21.80;20.60;;;;;;;;;;4995029;28;20459;-92
2021/10/02 01:48:02;;;;;;;21.47;20.37;;;;;;;;;;4994962;28;20469;-92
2021/10/02 01:50:30;;;;;;;22.87;21.47;;;;;;;;;;4994927;28;20909;-92
2021/10/02 01:52:59;;;;;;;22.73;21.33;;;;;;;;;;4994889;28;20468;-92
2021/10/02 01:55:28;;;;;;;22.80;20.90;;;;;;;;;;4994859;28;20438;-91
2021/10/02 01:57:59;;;;;;;22.47;21.17;;;;;;;;;;4977372;28;20420;-91
2021/10/02 02:00:28;;;;;;;22.50;21.20;;;;;;;;;;4994832;28;20424;-92
2021/10/02 02:02:57;;;;;;;23.53;22.03;;;;;;;;;;4995072;28;20480;-92
2021/10/02 02:05:27;;;;;;;23.10;21.70;;;;;;;;;;4994581;28;20415;-92
2021/10/02 02:07:56;;;;;;;22.70;21.30;;;;;;;;;;4994559;28;20420;-92
2021/10/02 02:10:24;;;;;;;23.13;21.80;;;;;;;;;;4994688;28;20476;-91
2021/10/02 02:12:54;;;;;;;23.63;22.23;;;;;;;;;;4977756;28;20453;-92
2021/10/02 02:15:22;;;;;;;21.40;20.30;;;;;;;;;;4994223;28;20431;-92
2021/10/02 02:17:53;;;;;;;22.53;21.27;;;;;;;;;;4994604;28;20432;-92
2021/10/02 02:20:22;;;;;;;21.87;20.37;;;;;;;;;;4994618;28;20456;-92
2021/10/02 02:22:50;;;;;;;22.83;21.43;;;;;;;;;;4995033;28;20446;-93
2021/10/02 02:25:17;;;;;;;22.10;20.83;;;;;;;;;;4994607;28;20439;-92
2021/10/02 02:27:45;;;;;;;23.17;21.20;;;;;;;;;;4994385;28;20447;-93
2021/10/02 02:30:13;;;;;;;22.17;20.87;;;;;;;;;;4994338;28;20452;-92
2021/10/02 02:32:41;;;;;;;23.63;22.13;;;;;;;;;;4976954;28;20452;-93
2021/10/02 02:35:10;;;;;;;22.13;20.73;;;;;;;;;;4996850;28;20457;-92
2021/10/02 02:37:38;;;;;;;22.57;21.23;;;;;;;;;;4998388;28;20438;-92
2021/10/02 02:40:06;;;;;;;23.70;22.00;;;;;;;;;;4998222;28;20474;-92
2021/10/02 02:42:34;;;;;;;21.43;20.23;;;;;;;;;;4998492;28;20457;-92
2021/10/02 02:45:01;;;;;;;22.33;21.13;;;;;;;;;;4998271;28;20468;-93
2021/10/02 02:47:30;;;;;;;22.00;20.70;;;;;;;;;;4998291;28;20901;-92
2021/10/02 02:50:01;;;;;;;21.73;20.43;;;;;;;;;;4998018;28;20945;-91
2021/10/02 02:52:33;;;;;;;21.37;20.20;;;;;;;;;;4998089;28;20437;-92
2021/10/02 02:55:03;;;;;;;21.57;20.37;;;;;;;;;;4998145;28;20428;-92
2021/10/02 02:57:34;;;;;;;22.40;21.00;;;;;;;;;;4998036;28;20493;-92
2021/10/02 03:00:04;;;;;;;22.50;21.00;;;;;;;;;;4997753;28;20491;-93
2021/10/02 03:02:34;;;;;;;22.90;21.13;;;;;;;;;;4997962;28;20461;-92
2021/10/02 03:05:03;;;;;;;22.13;20.73;;;;;;;;;;4998068;28;20466;-92
2021/10/02 03:07:34;;;;;;;23.33;21.63;;;;;;;;;;4997766;28;20435;-92
2021/10/02 03:10:03;;;;;;;21.90;20.70;;;;;;;;;;4997575;28;20485;-92
2021/10/02 03:12:32;;;;;;;23.53;22.03;;;;;;;;;;4997818;28;20481;-92
2021/10/02 03:15:00;;;;;;;21.80;20.60;;;;;;;;;;4997771;28;20468;-90
2021/10/02 03:17:30;;;;;;;21.53;20.23;;;;;;;;;;4997819;28;20447;-91
2021/10/02 03:19:59;;;;;;;21.33;20.03;;;;;;;;;;4997494;28;20489;-91
2021/10/02 03:22:28;;;;;;;21.73;20.57;;;;;;;;;;4997926;28;20496;-92
2021/10/02 03:24:57;;;;;;;23.83;22.30;;;;;;;;;;4997650;28;20441;-91
2021/10/02 03:27:27;;;;;;;22.87;21.40;;;;;;;;;;4997186;28;20467;-91
2021/10/02 03:29:55;;;;;;;22.67;21.07;;;;;;;;;;4997358;28;20477;-91
2021/10/02 03:32:24;;;;;;;24.20;22.63;;;;;;;;;;4997366;28;20439;-91
2021/10/02 03:34:51;;;;;;;23.80;22.50;;;;;;;;;;4997588;28;20513;-91
2021/10/02 03:37:19;;;;;;;25.13;23.53;;;;;;;;;;4997192;28;20457;-91
2021/10/02 03:39:46;;;;;;;25.37;23.87;;;;;;;;;;4997211;28;20490;-90
2021/10/02 03:42:15;;;;;;;24.10;22.70;;;;;;;;;;4996914;28;20917;-91
2021/10/02 03:44:44;;;;;;;24.03;22.60;;;;;;;;;;4997520;28;20820;-91
2021/10/02 03:47:12;;;;;;;23.37;21.77;;;;;;;;;;4996209;28;20950;-91
2021/10/02 03:49:39;;;;;;;25.90;24.40;;;;;;;;;;4997288;28;20446;-91
2021/10/02 03:52:07;;;;;;;24.70;23.40;;;;;;;;;;4997294;28;20460;-91
2021/10/02 03:54:36;;;;;;;25.97;24.47;;;;;;;;;;4979796;28;20420;-91
2021/10/02 03:57:04;;;;;;;24.90;23.20;;;;;;;;;;4997046;28;20516;-90
2021/10/02 03:59:32;;;;;;;25.30;23.90;;;;;;;;;;4996817;28;20483;-91
2021/10/02 04:02:00;;;;;;;28.10;26.30;;;;;;;;;;4996799;28;20961;-91
2021/10/02 04:04:27;;;;;;;27.10;25.20;;;;;;;;;;4996896;28;20461;-91
2021/10/02 04:06:55;;;;;;;28.87;26.83;;;;;;;;;;4997069;28;20434;-91
2021/10/02 04:09:22;;;;;;;26.90;25.30;;;;;;;;;;4996864;28;20452;-91
2021/10/02 04:11:50;;;;;;;27.83;25.83;;;;;;;;;;4996870;28;20485;-91
2021/10/02 04:14:17;;;;;;;29.40;27.30;;;;;;;;;;4996565;28;20437;-91
2021/10/02 04:16:46;;;;;;;27.57;25.87;;;;;;;;;;4996734;28;20464;-92
2021/10/02 04:19:13;;;;;;;30.33;27.60;;;;;;;;;;4996861;28;20471;-91
2021/10/02 04:21:40;;;;;;;27.37;25.50;;;;;;;;;;4996633;28;20444;-92
2021/10/02 04:24:08;;;;;;;28.87;26.57;;;;;;;;;;4996629;28;20461;-90
2021/10/02 04:26:35;;;;;;;27.50;25.40;;;;;;;;;;4996397;28;20465;-91
2021/10/02 04:29:03;;;;;;;27.80;25.90;;;;;;;;;;4963342;28;20453;-91
2021/10/02 04:31:31;;;;;;;26.83;25.23;;;;;;;;;;4978993;28;20793;-92
2021/10/02 04:34:00;;;;;;;27.47;25.67;;;;;;;;;;4996510;28;20460;-91
2021/10/02 04:36:27;;;;;;;27.50;25.53;;;;;;;;;;4996300;28;20461;-92
2021/10/02 04:38:55;;;;;;;27.27;25.37;;;;;;;;;;4996391;28;20454;-91
2021/10/02 04:41:22;;;;;;;28.20;26.13;;;;;;;;;;4996094;28;20461;-92
2021/10/02 04:43:49;;;;;;;27.57;25.77;;;;;;;;;;4996317;28;20453;-92
2021/10/02 04:46:18;;;;;;;25.07;23.33;;;;;;;;;;4996135;28;20516;-92
2021/10/02 04:48:45;;;;;;;24.07;22.50;;;;;;;;;;4996013;28;20456;-91
2021/10/02 04:51:14;;;;;;;24.20;22.40;;;;;;;;;;4995890;28;20461;-91
2021/10/02 04:53:42;;;;;;;24.50;22.97;;;;;;;;;;4996096;28;20435;-91
2021/10/02 04:56:12;;;;;;;25.60;23.90;;;;;;;;;;4995695;28;20451;-91
2021/10/02 04:58:39;;;;;;;24.63;22.90;;;;;;;;;;4995306;28;21012;-91
2021/10/02 05:01:07;;;;;;;23.23;21.93;;;;;;;;;;4995571;28;20496;-91
2021/10/02 05:03:34;;;;;;;23.10;21.70;;;;;;;;;;4996197;28;20449;-91
2021/10/02 05:06:03;;;;;;;24.63;23.23;;;;;;;;;;4996499;28;20449;-91
2021/10/02 05:08:32;;;;;;;25.00;23.40;;;;;;;;;;4995810;28;20950;-91
2021/10/02 05:11:00;;;;;;;24.53;23.13;;;;;;;;;;4995395;28;20957;-92
2021/10/02 05:13:28;;;;;;;24.03;22.63;;;;;;;;;;4995403;28;20435;-90
2021/10/02 05:15:55;;;;;;;23.07;21.67;;;;;;;;;;4995715;28;20477;-92
2021/10/02 05:18:22;;;;;;;24.23;22.73;;;;;;;;;;4995673;28;20468;-91
2021/10/02 05:20:50;;;;;;;23.53;22.13;;;;;;;;;;4995174;28;20489;-91
2021/10/02 05:23:17;;;;;;;23.33;21.93;;;;;;;;;;4995565;28;20435;-92
2021/10/02 05:25:46;;;;;;;23.80;22.37;;;;;;;;;;4995524;28;20464;-91
2021/10/02 05:28:13;;;;;;;23.10;21.50;;;;;;;;;;4995365;28;20898;-92
2021/10/02 05:30:41;;;;;;;22.60;21.30;;;;;;;;;;4995518;28;20423;-92
2021/10/02 05:33:08;;;;;;;22.63;21.40;;;;;;;;;;4995593;28;20441;-91
2021/10/02 05:35:36;;;;;;;22.97;21.77;;;;;;;;;;4995330;28;20914;-91
2021/10/02 05:38:04;;;;;;;22.37;21.07;;;;;;;;;;4994959;28;20969;-92
2021/10/02 05:40:31;;;;;;;22.00;20.70;;;;;;;;;;4995111;28;20499;-92
2021/10/02 05:43:02;;;;;;;22.80;21.33;;;;;;;;;;4995088;28;20443;-91
2021/10/02 05:45:30;;;;;;;22.97;21.50;;;;;;;;;;4995338;28;20428;-92
2021/10/02 05:47:57;;;;;;;22.57;21.23;;;;;;;;;;4995172;28;20465;-91
2021/10/02 05:50:25;;;;;;;23.70;22.40;;;;;;;;;;4995703;28;20440;-92
2021/10/02 05:52:52;;;;;;;21.37;20.07;;;;;;;;;;4995100;28;20447;-92
2021/10/02 05:55:19;;;;;;;22.93;21.60;;;;;;;;;;4994964;28;20451;-93
2021/10/02 05:57:47;;;;;;;22.17;20.83;;;;;;;;;;4995080;28;20436;-94
2021/10/02 06:00:16;;;;;;;22.50;21.20;;;;;;;;;;4994745;28;20462;-95
2021/10/02 06:02:43;;;;;;;23.23;21.90;;;;;;;;;;4994862;28;20435;-94
2021/10/02 06:05:10;;;;;;;21.63;20.43;;;;;;;;;;4994772;28;20431;-94
2021/10/02 06:07:38;;;;;;;21.40;20.10;;;;;;;;;;4995048;28;20469;-92
2021/10/02 06:10:06;;;;;;;21.60;20.30;;;;;;;;;;4993894;28;20483;-91
2021/10/02 06:12:34;;;;;;;21.57;20.37;;;;;;;;;;4994750;28;20457;-92
2021/10/02 06:15:01;;;;;;;21.77;20.17;;;;;;;;;;4994548;28;20442;-95
2021/10/02 06:17:30;;;;;;;21.17;19.93;;;;;;;;;;4994728;28;20453;-94
2021/10/02 06:19:57;;;;;;;21.07;19.87;;;;;;;;;;4994839;28;20680;-95
2021/10/02 06:22:24;;;;;;;21.17;20.07;;;;;;;;;;4994798;28;20962;-91
2021/10/02 06:24:52;;;;;;;21.10;19.97;;;;;;;;;;4994609;28;20432;-91
2021/10/02 06:27:19;;;;;;;21.77;20.57;;;;;;;;;;4994761;28;20453;-95
2021/10/02 06:29:46;;;;;;;20.73;19.53;;;;;;;;;;4994593;28;20436;-95
2021/10/02 06:32:14;;;;;;;21.63;20.33;;;;;;;;;;4994739;28;20454;-93
2021/10/02 06:34:43;;;;;;;21.83;20.63;;;;;;;;;;4994598;28;20449;-92
2021/10/02 06:37:10;;;;;;;21.90;20.60;;;;;;;;;;4994484;28;20469;-92
2021/10/02 06:39:37;;;;;;;21.43;20.23;;;;;;;;;;4994579;28;20934;-94
2021/10/02 06:42:06;;;;;;;21.13;19.83;;;;;;;;;;4995816;28;20443;-96
2021/10/02 06:44:33;;;;;;;21.97;20.73;;;;;;;;;;5000380;28;20435;-93
2021/10/02 06:47:01;;;;;;;20.27;19.27;;;;;;;;;;4995999;28;20772;-91
2021/10/02 06:49:29;;;;;;;20.93;19.67;;;;;;;;;;4994629;28;20438;-90
2021/10/02 06:51:58;;;;;;;20.87;19.77;;;;;;;;;;4994456;28;20472;-90
2021/10/02 06:57:29;;;;;;;20.70;19.70;;;;;;;;;;5408154;23;22094;-96
2021/10/02 06:59:56;;;;;;;22.37;20.90;;;;;;;;;;5036252;28;20457;-91
2021/10/02 07:02:24;;;;;;;22.00;20.77;;;;;;;;;;5033629;28;20428;-91
2021/10/02 07:04:52;;;;;;;22.67;21.27;;;;;;;;;;5033341;28;20763;-91
2021/10/02 07:10:23;;;;;;;22.93;21.63;;;;;;;;;;5052941;28;20445;-96
2021/10/02 07:18:33;;;;;;;22.50;21.10;;;;;;;;;;5793533;22;20500;-92
2021/10/02 07:21:01;;;;;;;22.90;21.50;;;;;;;;;;5018071;28;20465;-92
2021/10/02 07:23:29;;;;;;;23.50;21.80;;;;;;;;;;5020394;28;20759;-92
2021/10/02 07:25:58;;;;;;;22.67;20.97;;;;;;;;;;5037526;28;20474;-85
2021/10/02 07:28:26;;;;;;;27.07;25.07;;;;;;;;;;5036323;28;20433;-83
2021/10/02 07:30:53;;;;;;;25.50;23.37;;;;;;;;;;5037484;28;20463;-88
2021/10/02 07:33:21;;;;;;;25.00;23.13;;;;;;;;;;5036779;28;20410;-86
2021/10/02 07:35:48;;;;;;;24.90;22.90;;;;;;;;;;5035904;28;20410;-84
2021/10/02 07:38:15;;;;;;;26.00;23.70;;;;;;;;;;5036075;28;20437;-84
2021/10/02 07:40:43;;;;;;;24.43;22.30;;;;;;;;;;5017984;28;20505;-83
2021/10/02 07:43:12;;;;;;;24.17;22.13;;;;;;;;;;5036035;28;20543;-83
2021/10/02 07:45:41;;;;;;;23.27;21.70;;;;;;;;;;5036090;28;20444;-83
2021/10/02 07:48:10;;;;;;;23.87;22.30;;;;;;;;;;5035511;28;20436;-83
2021/10/02 07:50:38;;;;;;;22.20;20.60;;;;;;;;;;5018122;28;20513;-83
2021/10/02 07:53:05;;;;;;;22.37;20.93;;;;;;;;;;5035983;28;20415;-83
2021/10/02 07:55:34;;;;;;;28.43;26.03;;;;;;;;;;5035532;28;20414;-83
2021/10/02 07:58:02;;;;;;;30.73;28.20;;;;;;;;;;5035432;28;20440;-83
2021/10/02 08:00:32;;;;;;;27.30;25.50;;;;;;;;;;5035602;28;20460;-84
2021/10/02 08:03:00;;;;;;;21.83;20.53;;;;;;;;;;5035194;28;20885;-83
2021/10/02 08:05:27;;;;;;;21.57;20.23;;;;;;;;;;5036376;28;20431;-86
2021/10/02 08:07:56;;;;;;;21.90;20.70;;;;;;;;;;5018410;28;21001;-84
2021/10/02 08:10:26;;;;;;;22.40;21.00;;;;;;;;;;5035954;28;20467;-83
2021/10/02 08:12:54;;;;;;;21.83;20.50;;;;;;;;;;5035393;28;20415;-84
2021/10/02 08:15:22;;;;;;;21.53;20.43;;;;;;;;;;5036005;28;20425;-84
2021/10/02 08:17:52;;;;;;;21.53;20.33;;;;;;;;;;5035101;28;20450;-84
2021/10/02 08:20:20;;;;;;;22.80;21.50;;;;;;;;;;5035238;28;20457;-83
2021/10/02 08:22:48;;;;;;;21.70;20.50;;;;;;;;;;5034832;28;20923;-80
2021/10/02 08:25:17;;;;;;;22.20;20.80;;;;;;;;;;5034822;28;20436;-82
2021/10/02 08:27:46;;;;;;;21.13;19.83;;;;;;;;;;5034618;28;20451;-83
2021/10/02 08:30:14;;;;;;;22.23;20.10;;;;;;;;;;5033781;28;20415;-83
2021/10/02 08:32:41;;;;;;;21.13;19.93;;;;;;;;;;5034526;28;20437;-88
2021/10/02 08:35:11;;;;;;;22.27;20.97;;;;;;;;;;5036277;28;20430;-86
2021/10/02 08:37:39;;;;;;;20.13;19.13;;;;;;;;;;5034852;28;20440;-85
2021/10/02 08:40:08;;;;;;;20.35;19.30;;;;;;;;;;5034858;28;20944;-85
2021/10/02 08:42:37;;;;;;;20.43;19.43;;;;;;;;;;5035058;28;20484;-85
2021/10/02 08:45:05;;;;;;;21.07;19.80;;;;;;;;;;5034903;28;20469;-85
2021/10/02 08:47:36;;;;;;;20.17;19.17;;;;;;;;;;5034932;28;20451;-84
2021/10/02 08:50:05;;;;;;;21.10;20.10;;;;;;;;;;5034779;28;20458;-85
2021/10/02 08:52:34;;;;;;;21.73;20.53;;;;;;;;;;5034917;28;20912;-85
2021/10/02 08:55:03;;;;;;;19.90;18.77;;;;;;;;;;5034524;28;20458;-84
2021/10/02 08:57:32;;;;;;;20.23;19.23;;;;;;;;;;5034063;28;20510;-84
2021/10/02 08:59:59;;;;;;;21.50;20.30;;;;;;;;;;5034765;28;20763;-83
2021/10/02 09:02:27;;;;;;;20.83;19.73;;;;;;;;;;5035323;28;20486;-84
2021/10/02 09:04:56;;;;;;;20.67;19.53;;;;;;;;;;5034665;28;20414;-84
2021/10/02 09:07:24;;;;;;;20.20;18.80;;;;;;;;;;5034251;28;20422;-83
2021/10/02 09:09:54;;;;;;;19.43;18.53;;;;;;;;;;5034116;28;20451;-84
2021/10/02 09:12:22;;;;;;;19.70;18.63;;;;;;;;;;5034355;28;20501;-84
2021/10/02 09:14:52;;;;;;;24.03;22.47;;;;;;;;;;5034076;28;20904;-83
2021/10/02 09:17:20;;;;;;;19.20;18.23;;;;;;;;;;5034235;28;20451;-83
2021/10/02 09:19:48;;;;;;;19.67;18.67;;;;;;;;;;5033775;28;20537;-83
2021/10/02 09:22:18;;;;;;;20.37;19.00;;;;;;;;;;5034303;28;20463;-84
2021/10/02 09:24:45;;;;;;;21.07;19.90;;;;;;;;;;5034109;28;20423;-83
2021/10/02 09:27:16;;;;;;;20.37;19.37;;;;;;;;;;5033665;28;20446;-84
2021/10/02 09:29:45;;;;;;;20.97;19.87;;;;;;;;;;5033958;28;20407;-82
2021/10/02 09:32:14;;;;;;;21.53;20.30;;;;;;;;;;5033560;28;20432;-81
2021/10/02 09:34:50;;;;;;;20.67;19.50;;;;;;;;;;5033176;28;20792;-82
2021/10/02 09:37:21;;;;;;;21.00;19.60;;;;;;;;;;5033471;28;20412;-81
2021/10/02 09:39:49;;;;;;;20.20;19.23;;;;;;;;;;5014198;28;20469;-81
2021/10/02 09:42:21;;;;;;;21.57;20.13;;;;;;;;;;5013449;28;20490;-82
2021/10/02 09:44:49;;;;;;;21.63;20.50;;;;;;;;;;5013014;28;20939;-90
2021/10/02 09:47:16;;;;;;;20.00;19.10;;;;;;;;;;5013583;28;20449;-80
2021/10/02 09:49:44;;;;;;;21.50;20.30;;;;;;;;;;5013678;28;20419;-80
2021/10/02 09:52:26;;;;;;;20.90;19.80;;;;;;;;;;5013473;28;20432;-81
2021/10/02 09:54:53;;;;;;;20.40;19.30;;;;;;;;;;5013375;28;20781;-81
2021/10/02 09:57:23;;;;;;;20.60;19.60;;;;;;;;;;5013149;28;20442;-81
2021/10/02 09:59:51;;;;;;;20.97;19.70;;;;;;;;;;5013278;28;20448;-81
2021/10/02 10:02:19;;;;;;;21.20;20.20;;;;;;;;;;5013629;28;20516;-82
2021/10/02 10:04:50;;;;;;;20.60;19.60;;;;;;;;;;5006609;28;20449;-81
2021/10/02 10:07:17;;;;;;;20.73;19.60;;;;;;;;;;5013551;28;20428;-83
2021/10/02 10:09:59;;;;;;;21.87;20.67;;;;;;;;;;5000182;28;20459;-82
2021/10/02 10:12:28;;;;;;;20.97;19.77;;;;;;;;;;4993597;28;20414;-82
2021/10/02 10:14:56;;;;;;;20.23;19.13;;;;;;;;;;4992438;28;20976;-83
2021/10/02 10:17:24;;;;;;;19.43;18.23;;;;;;;;;;4993895;28;20845;-83
2021/10/02 10:20:03;;;;;;;19.30;18.30;;;;;;;;;;4993379;28;20486;-83
2021/10/02 10:22:30;;;;;;;19.90;18.80;;;;;;;;;;4992355;28;20511;-82
2021/10/02 10:24:58;;;;;;;19.60;18.70;;;;;;;;;;4993523;28;20464;-82
2021/10/02 10:27:46;;;;;;;19.70;18.80;;;;;;;;;;4993495;28;20465;-83
2021/10/02 10:30:15;;;;;;;19.07;18.17;;;;;;;;;;4993344;28;20498;-83
2021/10/02 10:32:55;;;;;;;18.50;17.70;;;;;;;;;;4993744;28;20475;-83
2021/10/02 10:35:23;;;;;;;19.13;18.23;;;;;;;;;;4993512;28;20508;-82
2021/10/02 10:37:50;;;;;;;19.33;18.43;;;;;;;;;;4993324;28;20410;-84
2021/10/02 10:40:18;;;;;;;19.40;18.50;;;;;;;;;;4993374;28;20471;-82
2021/10/02 10:42:46;;;;;;;18.80;17.90;;;;;;;;;;4993413;28;20465;-82
2021/10/02 10:45:14;;;;;;;19.17;18.37;;;;;;;;;;4993382;28;20459;-82
2021/10/02 10:47:42;;;;;;;18.90;18.00;;;;;;;;;;4993175;28;20482;-80
2021/10/02 10:50:09;;;;;;;19.30;18.40;;;;;;;;;;4991863;28;20455;-82
2021/10/02 10:52:38;;;;;;;19.83;18.17;;;;;;;;;;5030643;28;20464;-82
2021/10/02 10:55:11;;;;;;;19.40;18.50;;;;;;;;;;5033242;28;20427;-82
2021/10/02 10:57:40;;;;;;;18.70;17.83;;;;;;;;;;5036163;28;20445;-82
2021/10/02 11:00:12;;;;;;;18.67;17.77;;;;;;;;;;5036352;28;20465;-82
2021/10/02 11:02:43;;;;;;;18.80;17.90;;;;;;;;;;5036427;28;20485;-82
2021/10/02 11:05:25;;;;;;;19.17;18.20;;;;;;;;;;5036484;28;20467;-82
2021/10/02 11:07:53;;;;;;;19.10;18.17;;;;;;;;;;5036062;28;20461;-82
2021/10/02 11:10:45;;;;;;;18.60;17.80;;;;;;;;;;5036411;28;21010;-81
2021/10/02 11:13:14;;;;;;;19.43;18.43;;;;;;;;;;5034936;28;20456;-82
2021/10/02 11:15:43;;;;;;;18.73;17.83;;;;;;;;;;5036413;28;20437;-82
2021/10/02 11:18:26;;;;;;;19.00;18.20;;;;;;;;;;5036114;28;20472;-83
2021/10/02 11:21:01;;;;;;;19.27;18.17;;;;;;;;;;5035996;28;20456;-96
2021/10/02 11:24:02;;;;;;;20.13;18.80;;;;;;;;;;5036539;28;20471;-82
2021/10/02 11:26:38;;;;;;;18.93;18.03;;;;;;;;;;5035983;28;20441;-82
2021/10/02 11:29:20;;;;;;;19.67;18.73;;;;;;;;;;5035914;28;20419;-83
2021/10/02 11:31:49;;;;;;;20.03;19.03;;;;;;;;;;5033148;28;20505;-83
2021/10/02 11:34:18;;;;;;;20.53;19.33;;;;;;;;;;5035909;28;20416;-82
2021/10/02 11:36:47;;;;;;;19.00;18.00;;;;;;;;;;5036015;28;20874;-83
2021/10/02 11:39:18;;;;;;;19.27;18.37;;;;;;;;;;5036018;28;20881;-83
2021/10/02 11:41:46;;;;;;;20.10;19.07;;;;;;;;;;5035840;28;20455;-82
2021/10/02 11:44:13;;;;;;;20.13;19.13;;;;;;;;;;5035946;28;20440;-82
2021/10/02 11:46:41;;;;;;;19.53;18.43;;;;;;;;;;5035567;28;20427;-82
2021/10/02 11:49:17;;;;;;;19.20;18.10;;;;;;;;;;5035844;28;20423;-82
2021/10/02 11:51:44;;;;;;;18.87;17.90;;;;;;;;;;5035814;28;20421;-83
2021/10/02 11:54:13;;;;;;;19.30;18.20;;;;;;;;;;5035746;28;20437;-83
2021/10/02 11:56:42;;;;;;;19.07;18.17;;;;;;;;;;5035554;28;20407;-83
2021/10/02 11:59:10;;;;;;;18.50;17.43;;;;;;;;;;5035334;28;20448;-82
2021/10/02 12:01:39;;;;;;;18.80;17.80;;;;;;;;;;5035344;28;20508;-83
2021/10/02 12:04:07;;;;;;;18.90;17.90;;;;;;;;;;5035168;28;20442;-82
2021/10/02 12:06:38;;;;;;;18.90;18.00;;;;;;;;;;5034168;28;20418;-82
2021/10/02 12:09:06;;;;;;;17.93;17.13;;;;;;;;;;5035152;28;20438;-80
2021/10/02 12:11:40;;;;;;;17.83;16.93;;;;;;;;;;5035260;28;20425;-81
2021/10/02 12:14:08;;;;;;;18.20;17.40;;;;;;;;;;5034924;28;20415;-83
2021/10/02 12:16:36;;;;;;;18.50;17.47;;;;;;;;;;5035134;28;20426;-82
2021/10/02 12:19:08;;;;;;;19.43;18.13;;;;;;;;;;5034734;28;20477;-80
2021/10/02 12:21:41;;;;;;;19.27;18.37;;;;;;;;;;5034097;28;20477;-81
2021/10/02 12:24:11;;;;;;;18.80;17.90;;;;;;;;;;5035283;28;20412;-89
2021/10/02 12:26:40;;;;;;;19.23;18.23;;;;;;;;;;5035722;28;20415;-82
2021/10/02 12:29:09;;;;;;;19.40;18.40;;;;;;;;;;5035615;28;20449;-88
2021/10/02 12:31:47;;;;;;;19.90;18.80;;;;;;;;;;5035333;28;20448;-84
2021/10/02 12:34:16;;;;;;;18.80;17.93;;;;;;;;;;5035564;28;20805;-85
2021/10/02 12:36:46;;;;;;;18.10;17.13;;;;;;;;;;5034958;28;20419;-82
2021/10/02 12:39:13;;;;;;;18.23;17.17;;;;;;;;;;5034853;28;20754;-84
2021/10/02 12:41:41;;;;;;;19.47;18.53;;;;;;;;;;5034506;28;20423;-82
2021/10/02 12:44:16;;;;;;;20.20;19.13;;;;;;;;;;5037095;28;20411;-84
2021/10/02 12:46:43;;;;;;;19.57;18.57;;;;;;;;;;5034552;28;20415;-83
2021/10/02 12:49:11;;;;;;;18.60;17.60;;;;;;;;;;5034470;28;20422;-82
2021/10/02 12:51:40;;;;;;;19.77;18.73;;;;;;;;;;5034551;28;20443;-81
2021/10/02 12:54:09;;;;;;;18.73;17.83;;;;;;;;;;5034308;28;20454;-82
2021/10/02 12:56:37;;;;;;;19.17;18.27;;;;;;;;;;5034072;28;20439;-82
2021/10/02 12:59:14;;;;;;;19.10;18.20;;;;;;;;;;5034453;28;20914;-82
2021/10/02 13:01:47;;;;;;;18.30;17.30;;;;;;;;;;5034064;28;20425;-82
2021/10/02 13:04:18;;;;;;;19.73;18.70;;;;;;;;;;5034044;28;20416;-82
2021/10/02 13:06:49;;;;;;;19.20;18.20;;;;;;;;;;5034023;28;20433;-82
2021/10/02 13:09:18;;;;;;;19.03;18.13;;;;;;;;;;5034217;28;20447;-82
2021/10/02 13:11:45;;;;;;;19.73;18.73;;;;;;;;;;5034247;28;20420;-82
2021/10/02 13:14:13;;;;;;;20.00;19.10;;;;;;;;;;5032670;28;20422;-82
2021/10/02 13:16:40;;;;;;;20.53;19.53;;;;;;;;;;5033758;28;20416;-82
2021/10/02 13:19:08;;;;;;;20.80;19.80;;;;;;;;;;5032406;28;20463;-82
2021/10/02 13:21:35;;;;;;;21.10;20.00;;;;;;;;;;5033621;28;20940;-82
2021/10/02 13:24:12;;;;;;;20.27;19.27;;;;;;;;;;5033581;28;20474;-80
2021/10/02 13:26:47;;;;;;;20.40;19.30;;;;;;;;;;5033583;28;20438;-81
2021/10/02 13:29:25;;;;;;;19.63;18.73;;;;;;;;;;5033734;28;20758;-82
2021/10/02 13:31:53;;;;;;;19.63;18.73;;;;;;;;;;5033665;28;20489;-82
2021/10/02 13:34:20;;;;;;;21.00;19.90;;;;;;;;;;5033582;28;20413;-82
2021/10/02 13:36:47;;;;;;;20.60;19.47;;;;;;;;;;5033401;28;20412;-83
2021/10/02 13:39:16;;;;;;;20.17;19.07;;;;;;;;;;5033663;28;20756;-82
2021/10/02 13:41:46;;;;;;;21.83;20.33;;;;;;;;;;5033317;28;20432;-82
2021/10/02 13:44:16;;;;;;;20.23;19.03;;;;;;;;;;5032109;28;20919;-82
2021/10/02 13:46:45;;;;;;;19.67;18.67;;;;;;;;;;5033099;28;20438;-81
2021/10/02 13:49:13;;;;;;;19.90;18.90;;;;;;;;;;5033155;28;20519;-82
2021/10/02 13:51:41;;;;;;;20.97;19.77;;;;;;;;;;5033209;28;20452;-82
2021/10/02 13:54:08;;;;;;;22.60;21.30;;;;;;;;;;5033186;28;20443;-82
2021/10/02 13:56:36;;;;;;;21.83;20.63;;;;;;;;;;5033303;28;20415;-82
2021/10/02 13:59:04;;;;;;;22.27;20.73;;;;;;;;;;5033136;28;20458;-82
2021/10/02 14:01:33;;;;;;;21.97;20.50;;;;;;;;;;5033026;28;20421;-82
2021/10/02 14:04:00;;;;;;;21.17;20.07;;;;;;;;;;5033225;28;20463;-83
2021/10/02 14:06:28;;;;;;;21.17;20.07;;;;;;;;;;5022623;28;20810;-80
2021/10/02 14:08:55;;;;;;;20.20;19.10;;;;;;;;;;4993541;28;20414;-82
2021/10/02 14:11:23;;;;;;;20.83;19.83;;;;;;;;;;4993598;28;20414;-82
2021/10/02 14:13:50;;;;;;;20.00;19.00;;;;;;;;;;4993450;28;20439;-81
2021/10/02 14:16:18;;;;;;;20.80;19.50;;;;;;;;;;4993677;28;20422;-81
2021/10/02 14:18:47;;;;;;;20.90;19.70;;;;;;;;;;4993202;28;20515;-81
2021/10/02 14:21:14;;;;;;;20.37;19.30;;;;;;;;;;4993340;28;20926;-81
2021/10/02 14:23:41;;;;;;;20.47;19.27;;;;;;;;;;4993461;28;20583;-81
2021/10/02 14:26:09;;;;;;;19.60;18.70;;;;;;;;;;4993383;28;20470;-81
2021/10/02 14:28:36;;;;;;;20.53;19.50;;;;;;;;;;4993491;28;20422;-81
2021/10/02 14:31:04;;;;;;;20.10;19.10;;;;;;;;;;4992972;28;20429;-81
2021/10/02 14:33:31;;;;;;;20.73;19.43;;;;;;;;;;4993467;28;20541;-81
2021/10/02 14:36:01;;;;;;;20.30;19.10;;;;;;;;;;4992338;28;20441;-81
2021/10/02 14:38:29;;;;;;;19.63;18.67;;;;;;;;;;4992347;28;20527;-80
2021/10/02 14:40:57;;;;;;;21.00;19.90;;;;;;;;;;4993559;28;20438;-82
2021/10/02 14:43:26;;;;;;;20.93;19.93;;;;;;;;;;4992123;28;20499;-81
2021/10/02 14:45:54;;;;;;;20.63;19.60;;;;;;;;;;4992269;28;20467;-81
2021/10/02 14:48:22;;;;;;;19.77;18.70;;;;;;;;;;4991697;28;20464;-82
2021/10/02 14:50:50;;;;;;;20.50;19.40;;;;;;;;;;4993153;28;20436;-81
2021/10/02 14:53:20;;;;;;;21.00;19.80;;;;;;;;;;4993151;28;20961;-81
2021/10/02 14:55:48;;;;;;;19.83;18.73;;;;;;;;;;4991750;28;20474;-81
2021/10/02 14:58:16;;;;;;;19.93;18.83;;;;;;;;;;4993341;28;20456;-83
2021/10/02 15:00:44;;;;;;;19.50;18.50;;;;;;;;;;4993672;28;20413;-84
2021/10/02 15:03:12;;;;;;;20.17;19.07;;;;;;;;;;4993571;28;20487;-82
2021/10/02 15:05:40;;;;;;;20.80;19.40;;;;;;;;;;4992642;28;20426;-81
2021/10/02 15:08:07;;;;;;;20.40;19.13;;;;;;;;;;4993258;28;20447;-81
2021/10/02 15:10:37;;;;;;;19.90;18.80;;;;;;;;;;4992728;28;20961;-81
2021/10/02 15:13:04;;;;;;;20.50;19.40;;;;;;;;;;4992854;28;20414;-81
2021/10/02 15:15:32;;;;;;;19.40;18.40;;;;;;;;;;4993135;28;20420;-81
2021/10/02 15:17:59;;;;;;;22.10;20.50;;;;;;;;;;4992680;28;20936;-79
2021/10/02 15:20:26;;;;;;;21.67;20.27;;;;;;;;;;4992783;28;20404;-81
2021/10/02 15:22:58;;;;;;;20.60;19.40;;;;;;;;;;4993064;28;20478;-81